createdAt,value
2017-11-13T00:01:07.157Z,0.97
2017-11-13T00:03:33.532Z,1.20
2017-11-13T00:05:59.912Z,1.00
2017-11-13T00:08:26.318Z,1.23
2017-11-13T00:10:52.711Z,1.60
2017-11-13T00:13:19.108Z,3.30
2017-11-13T00:15:45.504Z,1.10
2017-11-13T00:18:11.902Z,1.40
2017-11-13T00:20:39.046Z,1.33
2017-11-13T00:23:06.189Z,1.97
2017-11-13T00:25:33.382Z,1.50
2017-11-13T00:27:59.786Z,1.90
2017-11-13T00:30:26.903Z,1.30
2017-11-13T00:32:53.319Z,1.53
2017-11-13T00:35:19.729Z,0.97
2017-11-13T00:37:46.106Z,2.00
2017-11-13T00:40:12.527Z,1.30
2017-11-13T00:42:38.933Z,3.70
2017-11-13T00:45:05.332Z,1.73
2017-11-13T00:47:32.452Z,3.63
2017-11-13T00:49:58.869Z,7.37
2017-11-13T00:52:25.266Z,1.30
2017-11-13T00:54:51.690Z,1.30
2017-11-13T00:57:18.122Z,1.20
2017-11-13T00:59:44.520Z,1.23
2017-11-13T01:02:11.637Z,1.00
2017-11-13T01:04:38.032Z,1.30
2017-11-13T01:07:04.396Z,1.00
2017-11-13T01:09:30.793Z,1.53
2017-11-13T01:11:57.200Z,1.97
2017-11-13T01:14:24.335Z,1.43
2017-11-13T01:16:50.711Z,1.40
2017-11-13T01:19:17.096Z,1.20
2017-11-13T01:21:44.981Z,1.53
2017-11-13T01:24:12.113Z,1.30
2017-11-13T01:26:38.628Z,1.30
2017-11-13T01:29:05.022Z,1.37
2017-11-13T01:31:31.408Z,1.40
2017-11-13T01:33:57.813Z,1.50
2017-11-13T01:36:24.203Z,1.93
2017-11-13T01:38:51.365Z,2.03
2017-11-13T01:41:17.756Z,1.70
2017-11-13T01:43:44.154Z,1.60
2017-11-13T01:46:10.554Z,1.97
2017-11-13T01:48:36.993Z,2.30
2017-11-13T01:51:03.385Z,2.10
2017-11-13T01:53:29.792Z,1.90
2017-11-13T01:55:56.233Z,1.80
2017-11-13T01:58:22.671Z,1.83
2017-11-13T02:00:49.057Z,1.80
2017-11-13T02:03:15.454Z,2.10
2017-11-13T02:05:41.896Z,1.93
2017-11-13T02:08:09.085Z,2.20
2017-11-13T02:10:35.533Z,2.20
2017-11-13T02:13:01.975Z,1.63
2017-11-13T02:15:28.377Z,2.50
2017-11-13T02:17:54.819Z,2.30
2017-11-13T02:20:21.323Z,2.00
2017-11-13T02:22:48.519Z,2.20
2017-11-13T02:25:14.959Z,2.30
2017-11-13T02:27:41.391Z,2.23
2017-11-13T02:30:07.825Z,2.30
2017-11-13T02:32:34.469Z,2.53
2017-11-13T02:35:01.639Z,2.40
2017-11-13T02:37:28.064Z,2.60
2017-11-13T02:39:56.004Z,2.97
2017-11-13T02:42:22.421Z,2.20
2017-11-13T02:44:48.887Z,2.50
2017-11-13T02:47:15.359Z,2.50
2017-11-13T02:49:41.810Z,2.00
2017-11-13T02:52:08.251Z,2.80
2017-11-13T02:54:34.695Z,2.80
2017-11-13T02:57:01.131Z,2.67
2017-11-13T02:59:27.560Z,2.80
2017-11-13T03:01:53.973Z,2.47
2017-11-13T03:04:20.368Z,2.63
2017-11-13T03:06:46.838Z,2.93
2017-11-13T03:09:13.245Z,3.20
2017-11-13T03:11:40.684Z,3.70
2017-11-13T03:14:07.115Z,3.03
2017-11-13T03:16:33.499Z,2.60
2017-11-13T03:18:59.922Z,3.97
2017-11-13T03:21:26.340Z,3.70
2017-11-13T03:23:53.500Z,5.23
2017-11-13T03:26:19.914Z,2.27
2017-11-13T03:28:47.065Z,3.30
2017-11-13T03:31:14.266Z,2.70
2017-11-13T03:33:40.908Z,3.13
2017-11-13T03:36:07.328Z,3.07
2017-11-13T03:38:33.734Z,3.50
2017-11-13T03:41:00.912Z,2.20
2017-11-13T03:43:27.319Z,2.43
2017-11-13T03:45:53.716Z,2.13
2017-11-13T03:48:20.080Z,3.00
2017-11-13T03:50:46.482Z,2.60
2017-11-13T03:53:12.870Z,3.00
2017-11-13T03:55:39.275Z,3.10
2017-11-13T03:58:05.640Z,2.67
2017-11-13T04:00:32.017Z,2.07
2017-11-13T04:02:58.431Z,2.40
2017-11-13T04:05:24.839Z,2.20
2017-11-13T04:07:51.283Z,2.30
2017-11-13T04:10:17.731Z,5.57
2017-11-13T04:12:44.119Z,2.33
2017-11-13T04:15:10.523Z,3.47
2017-11-13T04:17:37.657Z,3.30
2017-11-13T04:20:04.095Z,5.17
2017-11-13T04:22:30.454Z,5.20
2017-11-13T04:24:56.893Z,4.73
2017-11-13T04:27:23.276Z,6.33
2017-11-13T04:29:49.672Z,8.53
2017-11-13T04:32:16.162Z,11.43
2017-11-13T04:34:43.308Z,3.07
2017-11-13T04:37:10.441Z,3.50
2017-11-13T04:39:36.843Z,7.53
2017-11-13T04:42:03.964Z,6.27
2017-11-13T04:44:30.342Z,5.57
2017-11-13T04:46:56.777Z,8.17
2017-11-13T04:49:23.181Z,3.90
2017-11-13T04:51:49.573Z,5.00
2017-11-13T04:54:16.704Z,3.83
2017-11-13T04:56:43.833Z,3.07
2017-11-13T04:59:10.224Z,2.77
2017-11-13T05:01:36.636Z,3.60
2017-11-13T05:04:03.768Z,3.07
2017-11-13T05:06:31.735Z,3.37
2017-11-13T05:08:58.180Z,3.27
2017-11-13T05:11:25.384Z,3.20
2017-11-13T05:13:51.793Z,3.30
2017-11-13T05:16:18.257Z,3.30
2017-11-13T05:18:44.718Z,2.97
2017-11-13T05:21:11.257Z,3.37
2017-11-13T05:23:37.675Z,3.20
2017-11-13T05:26:04.122Z,3.83
2017-11-13T05:28:30.580Z,3.90
2017-11-13T05:30:57.753Z,3.40
2017-11-13T05:33:24.157Z,3.50
2017-11-13T05:35:51.280Z,3.70
2017-11-13T05:38:17.682Z,3.30
2017-11-13T05:40:44.067Z,7.70
2017-11-13T05:43:11.224Z,4.07
2017-11-13T05:45:38.335Z,3.87
2017-11-13T05:48:04.744Z,3.60
2017-11-13T05:50:31.151Z,5.37
2017-11-13T05:52:57.524Z,4.90
2017-11-13T05:55:23.948Z,6.30
2017-11-13T05:57:50.339Z,4.20
2017-11-13T06:00:16.736Z,5.00
2017-11-13T06:02:43.142Z,4.50
2017-11-13T06:05:09.540Z,5.97
2017-11-13T06:07:35.986Z,3.90
2017-11-13T06:10:02.457Z,6.63
2017-11-13T06:12:28.871Z,8.37
2017-11-13T06:14:55.265Z,7.07
2017-11-13T06:17:21.674Z,4.33
2017-11-13T06:19:48.820Z,5.03
2017-11-13T06:22:15.186Z,7.13
2017-11-13T06:24:41.605Z,6.20
2017-11-13T06:27:08.013Z,4.80
2017-11-13T06:29:34.405Z,5.10
2017-11-13T06:32:00.819Z,9.20
2017-11-13T06:34:27.237Z,6.10
2017-11-13T06:36:54.356Z,7.10
2017-11-13T06:39:20.781Z,5.67
2017-11-13T06:41:47.964Z,6.10
2017-11-13T06:44:15.103Z,5.77
2017-11-13T06:46:42.233Z,6.03
2017-11-13T06:49:08.621Z,6.60
2017-11-13T06:51:35.034Z,6.17
2017-11-13T06:54:01.450Z,6.60
2017-11-13T06:56:28.636Z,5.70
2017-11-13T06:58:55.041Z,6.47
2017-11-13T07:01:22.170Z,5.80
2017-11-13T07:03:48.636Z,6.93
2017-11-13T07:06:15.026Z,8.43
2017-11-13T07:08:41.416Z,8.13
2017-11-13T07:11:07.849Z,6.53
2017-11-13T07:13:34.270Z,13.73
2017-11-13T07:16:00.685Z,6.60
2017-11-13T07:18:27.091Z,9.13
2017-11-13T07:20:53.466Z,7.20
2017-11-13T07:23:19.872Z,8.37
2017-11-13T07:25:47.053Z,5.73
2017-11-13T07:28:13.444Z,7.17
2017-11-13T07:30:39.864Z,8.50
2017-11-13T07:33:06.272Z,6.27
2017-11-13T07:35:32.674Z,5.97
2017-11-13T07:37:59.117Z,7.97
2017-11-13T07:40:25.533Z,6.73
2017-11-13T07:42:51.933Z,6.30
2017-11-13T07:45:19.069Z,7.53
2017-11-13T07:47:45.461Z,7.27
2017-11-13T07:50:11.846Z,7.77
2017-11-13T07:52:38.257Z,7.30
2017-11-13T07:55:04.658Z,7.60
2017-11-13T07:57:31.074Z,7.67
2017-11-13T07:59:57.493Z,7.50
2017-11-13T08:02:24.663Z,11.00
2017-11-13T08:04:51.118Z,8.30
2017-11-13T08:07:17.512Z,7.17
2017-11-13T08:09:44.709Z,7.60
2017-11-13T08:12:11.113Z,7.60
2017-11-13T08:14:37.525Z,7.70
2017-11-13T08:17:04.695Z,10.07
2017-11-13T08:19:31.813Z,6.30
2017-11-13T08:21:58.991Z,11.93
2017-11-13T08:24:25.445Z,7.17
2017-11-13T08:26:51.834Z,6.40
2017-11-13T08:29:19.009Z,7.80
2017-11-13T08:31:45.450Z,8.70
2017-11-13T08:34:11.901Z,9.20
2017-11-13T08:36:38.361Z,10.60
2017-11-13T08:39:04.785Z,8.30
2017-11-13T08:41:31.197Z,10.17
2017-11-13T08:43:57.598Z,9.13
2017-11-13T08:46:24.004Z,7.63
2017-11-13T08:48:51.137Z,8.90
2017-11-13T08:51:17.517Z,6.40
2017-11-13T08:53:43.905Z,8.03
2017-11-13T08:56:10.331Z,9.50
2017-11-13T08:58:38.224Z,12.80
2017-11-13T09:01:05.372Z,7.43
2017-11-13T09:03:32.524Z,9.20
2017-11-13T09:05:58.918Z,10.13
2017-11-13T09:08:25.342Z,7.60
2017-11-13T09:10:51.726Z,7.87
2017-11-13T09:13:18.869Z,12.17
2017-11-13T09:15:46.033Z,7.67
2017-11-13T09:18:13.200Z,9.10
2017-11-13T09:20:39.608Z,8.13
2017-11-13T09:23:06.749Z,11.00
2017-11-13T09:25:33.888Z,8.03
2017-11-13T09:28:01.792Z,7.73
2017-11-13T09:30:28.196Z,8.27
2017-11-13T09:32:56.058Z,18.57
2017-11-13T09:35:23.226Z,11.33
2017-11-13T09:37:50.388Z,8.33
2017-11-13T09:40:16.832Z,8.27
2017-11-13T09:42:43.262Z,7.80
2017-11-13T09:45:09.670Z,10.07
2017-11-13T09:47:36.159Z,7.57
2017-11-13T09:50:02.660Z,7.40
2017-11-13T09:52:29.118Z,7.27
2017-11-13T09:54:55.523Z,7.50
2017-11-13T09:57:21.964Z,6.90
2017-11-13T09:59:48.397Z,7.43
2017-11-13T10:02:14.885Z,8.40
2017-11-13T10:04:42.076Z,7.57
2017-11-13T10:07:08.503Z,6.80
2017-11-13T10:09:34.969Z,8.43
2017-11-13T10:12:01.849Z,7.97
2017-11-13T10:14:29.045Z,5.77
2017-11-13T10:16:55.510Z,4.87
2017-11-13T10:19:21.988Z,5.80
2017-11-13T10:21:48.448Z,7.00
2017-11-13T10:24:14.910Z,4.90
2017-11-13T10:26:41.375Z,4.93
2017-11-13T10:29:08.521Z,8.03
2017-11-13T10:31:35.682Z,5.93
2017-11-13T10:34:02.936Z,5.63
2017-11-13T10:36:30.132Z,5.00
2017-11-13T10:38:56.568Z,6.70
2017-11-13T10:41:22.970Z,9.70
2017-11-13T10:43:49.407Z,5.50
2017-11-13T10:46:15.887Z,8.67
2017-11-13T10:48:43.059Z,4.90
2017-11-13T10:51:10.244Z,5.30
2017-11-13T10:53:36.709Z,5.80
2017-11-13T10:56:04.469Z,7.83
2017-11-13T10:58:30.949Z,4.70
2017-11-13T11:00:58.187Z,5.67
2017-11-13T11:03:24.701Z,5.97
2017-11-13T11:05:51.187Z,6.80
2017-11-13T11:08:17.657Z,4.03
2017-11-13T11:10:44.160Z,4.53
2017-11-13T11:13:10.676Z,10.03
2017-11-13T11:15:53.008Z,4.87
2017-11-13T11:18:19.532Z,6.03
2017-11-13T11:21:02.987Z,4.33
2017-11-13T11:23:30.382Z,8.40
2017-11-13T11:26:13.783Z,3.30
2017-11-13T11:28:59.230Z,6.27
2017-11-13T11:31:26.535Z,3.80
2017-11-13T11:33:53.021Z,4.20
2017-11-13T11:36:20.372Z,4.40
2017-11-13T11:38:46.868Z,5.53
2017-11-13T11:41:15.861Z,7.33
2017-11-13T11:43:43.049Z,3.00
2017-11-13T11:46:10.408Z,3.53
2017-11-13T11:48:39.801Z,3.47
2017-11-13T11:51:06.291Z,3.83
2017-11-13T11:53:32.723Z,3.90
2017-11-13T11:56:07.079Z,3.27
2017-11-13T11:58:34.345Z,6.67
2017-11-13T12:01:00.817Z,4.50
2017-11-13T12:03:27.253Z,5.27
2017-11-13T12:05:53.749Z,4.17
2017-11-13T12:08:20.201Z,10.50
2017-11-13T12:10:46.616Z,5.53
2017-11-13T12:13:13.067Z,5.30
2017-11-13T12:15:39.488Z,3.77
2017-11-13T12:18:05.903Z,5.43
2017-11-13T12:20:32.345Z,5.43
2017-11-13T12:22:58.778Z,7.07
2017-11-13T12:25:25.509Z,7.67
2017-11-13T12:27:51.945Z,5.73
2017-11-13T12:30:18.366Z,5.70
2017-11-13T12:32:45.503Z,5.73
2017-11-13T12:35:12.643Z,7.57
2017-11-13T12:37:39.778Z,8.00
2017-11-13T12:40:06.203Z,6.40
2017-11-13T12:42:32.612Z,6.93
2017-11-13T12:44:59.012Z,8.93
2017-11-13T12:47:26.209Z,5.47
2017-11-13T12:49:52.608Z,6.13
2017-11-13T12:52:19.047Z,6.17
2017-11-13T12:54:45.485Z,4.97
2017-11-13T12:57:11.940Z,6.43
2017-11-13T12:59:38.425Z,5.93
2017-11-13T13:02:05.631Z,6.80
2017-11-13T13:04:32.146Z,8.80
2017-11-13T13:06:58.610Z,6.93
2017-11-13T13:09:25.057Z,6.90
2017-11-13T13:11:52.245Z,5.00
2017-11-13T13:14:18.671Z,7.30
2017-11-13T13:16:45.166Z,5.43
2017-11-13T13:19:12.318Z,7.13
2017-11-13T13:21:38.720Z,7.60
2017-11-13T13:24:05.127Z,6.27
2017-11-13T13:26:31.542Z,5.50
2017-11-13T13:28:58.684Z,4.90
2017-11-13T13:31:25.828Z,5.80
2017-11-13T13:33:52.973Z,6.67
2017-11-13T13:36:20.139Z,8.53
2017-11-13T13:38:47.267Z,6.73
2017-11-13T13:41:13.668Z,10.70
2017-11-13T13:43:40.050Z,11.00
2017-11-13T13:46:07.209Z,7.47
2017-11-13T13:48:34.353Z,12.20
2017-11-13T13:51:01.528Z,6.40
2017-11-13T13:53:28.251Z,6.97
2017-11-13T13:55:54.672Z,5.87
2017-11-13T13:58:21.868Z,8.40
2017-11-13T14:00:49.117Z,11.33
2017-11-13T14:03:15.548Z,8.20
2017-11-13T14:05:42.153Z,5.50
2017-11-13T14:08:09.323Z,5.73
2017-11-13T14:10:35.757Z,6.77
2017-11-13T14:13:02.174Z,7.57
2017-11-13T14:15:28.616Z,10.83
2017-11-13T14:17:55.097Z,7.03
2017-11-13T14:20:21.585Z,6.70
2017-11-13T14:22:48.040Z,5.10
2017-11-13T14:25:14.458Z,9.60
2017-11-13T14:27:40.911Z,10.10
2017-11-13T14:30:07.345Z,7.53
2017-11-13T14:32:33.859Z,5.77
2017-11-13T14:35:00.285Z,6.17
2017-11-13T14:37:26.710Z,8.77
2017-11-13T14:39:53.301Z,5.63
2017-11-13T14:42:19.804Z,5.50
2017-11-13T14:44:46.218Z,7.30
2017-11-13T14:47:12.633Z,6.13
2017-11-13T14:49:39.914Z,5.50
2017-11-13T14:52:06.362Z,5.23
2017-11-13T14:54:32.767Z,5.80
2017-11-13T14:56:59.156Z,8.27
2017-11-13T14:59:25.587Z,14.97
2017-11-13T15:01:51.992Z,7.20
2017-11-13T15:04:18.427Z,8.33
2017-11-13T15:06:44.856Z,9.10
2017-11-13T15:09:11.264Z,9.40
2017-11-13T15:11:37.664Z,6.47
2017-11-13T15:14:04.071Z,9.73
2017-11-13T15:16:31.172Z,5.87
2017-11-13T15:18:58.305Z,13.93
2017-11-13T15:21:25.478Z,10.50
2017-11-13T15:23:51.920Z,17.93
2017-11-13T15:26:18.324Z,5.93
2017-11-13T15:28:45.460Z,6.30
2017-11-13T15:31:12.638Z,6.43
2017-11-13T15:33:39.013Z,7.77
2017-11-13T15:36:05.432Z,8.17
2017-11-13T15:38:31.816Z,9.60
2017-11-13T15:40:58.201Z,9.53
2017-11-13T15:43:24.620Z,7.67
2017-11-13T15:45:51.002Z,8.40
2017-11-13T15:48:18.151Z,12.10
2017-11-13T15:50:45.284Z,10.97
2017-11-13T15:53:11.794Z,9.13
2017-11-13T15:55:38.215Z,9.50
2017-11-13T15:58:04.641Z,8.00
2017-11-13T16:00:31.062Z,13.23
2017-11-13T16:02:57.492Z,9.90
2017-11-13T16:05:23.925Z,8.40
2017-11-13T16:07:50.301Z,13.00
2017-11-13T16:10:16.692Z,11.03
2017-11-13T16:12:43.090Z,10.20
2017-11-13T16:15:10.223Z,15.23
2017-11-13T16:17:36.639Z,11.03
2017-11-13T16:20:03.066Z,7.40
2017-11-13T16:22:29.446Z,7.13
2017-11-13T16:24:56.565Z,6.33
2017-11-13T16:27:22.973Z,9.67
2017-11-13T16:29:49.437Z,9.93
2017-11-13T16:32:16.586Z,9.67
2017-11-13T16:34:43.773Z,9.20
2017-11-13T16:37:10.332Z,8.60
2017-11-13T16:39:36.805Z,11.60
2017-11-13T16:42:03.224Z,9.00
2017-11-13T16:44:29.616Z,9.60
2017-11-13T16:46:56.023Z,19.17
2017-11-13T16:49:23.149Z,9.10
2017-11-13T16:51:51.028Z,11.17
2017-11-13T16:54:18.940Z,10.03
2017-11-13T16:56:45.415Z,11.83
2017-11-13T16:59:12.593Z,10.10
2017-11-13T17:01:39.700Z,8.90
2017-11-13T17:04:06.108Z,12.53
2017-11-13T17:06:32.501Z,10.70
2017-11-13T17:08:59.654Z,9.00
2017-11-13T17:11:27.013Z,11.33
2017-11-13T17:13:54.155Z,19.07
2017-11-13T17:16:21.290Z,7.87
2017-11-13T17:18:47.683Z,9.40
2017-11-13T17:21:14.066Z,12.10
2017-11-13T17:23:41.191Z,12.23
2017-11-13T17:26:07.589Z,10.40
2017-11-13T17:28:34.008Z,9.53
2017-11-13T17:31:00.394Z,17.33
2017-11-13T17:33:27.629Z,10.80
2017-11-13T17:35:54.024Z,13.33
2017-11-13T17:38:20.493Z,11.67
2017-11-13T17:40:46.987Z,11.83
2017-11-13T17:43:13.423Z,11.73
2017-11-13T17:45:39.871Z,12.70
2017-11-13T17:48:06.281Z,16.23
2017-11-13T17:50:32.672Z,13.70
2017-11-13T17:52:59.056Z,13.60
2017-11-13T17:55:25.472Z,19.13
2017-11-13T17:57:52.650Z,15.70
2017-11-13T18:00:19.064Z,14.90
2017-11-13T18:02:46.184Z,12.83
2017-11-13T18:05:13.336Z,14.23
2017-11-13T18:07:40.487Z,17.40
2017-11-13T18:10:07.622Z,20.07
2017-11-13T18:12:34.753Z,17.60
2017-11-13T18:15:01.175Z,15.20
2017-11-13T18:17:27.581Z,13.63
2017-11-13T18:19:53.997Z,18.07
2017-11-13T18:22:21.157Z,14.93
2017-11-13T18:24:47.557Z,18.73
2017-11-13T18:27:13.956Z,17.30
2017-11-13T18:29:40.336Z,16.53
2017-11-13T18:32:07.458Z,23.23
2017-11-13T18:34:33.865Z,30.07
2017-11-13T18:37:00.260Z,25.80
2017-11-13T18:39:26.700Z,19.50
2017-11-13T18:41:53.922Z,25.33
2017-11-13T18:44:21.054Z,31.43
2017-11-13T18:46:47.470Z,19.57
2017-11-13T18:49:13.867Z,27.60
2017-11-13T18:51:40.280Z,21.30
2017-11-13T18:54:07.419Z,22.87
2017-11-13T18:56:34.603Z,17.80
2017-11-13T18:59:00.992Z,20.10
2017-11-13T19:01:27.396Z,19.27
2017-11-13T19:03:53.819Z,19.30
2017-11-13T19:06:20.208Z,20.93
2017-11-13T19:08:47.358Z,18.53
2017-11-13T19:11:14.518Z,17.87
2017-11-13T19:13:40.966Z,21.40
2017-11-13T19:16:07.649Z,18.73
2017-11-13T19:18:34.109Z,17.40
2017-11-13T19:21:01.279Z,20.63
2017-11-13T19:23:28.393Z,17.87
2017-11-13T19:25:54.847Z,17.30
2017-11-13T19:28:21.288Z,20.10
2017-11-13T19:30:48.449Z,21.90
2017-11-13T19:33:14.884Z,23.83
2017-11-13T19:35:41.317Z,21.00
2017-11-13T19:38:07.760Z,20.07
2017-11-13T19:40:34.179Z,23.63
2017-11-13T19:43:00.721Z,22.77
2017-11-13T19:45:27.143Z,21.23
2017-11-13T19:47:53.555Z,22.00
2017-11-13T19:50:20.697Z,22.33
2017-11-13T19:52:47.084Z,28.60
2017-11-13T19:55:13.495Z,20.73
2017-11-13T19:57:39.887Z,27.23
2017-11-13T20:00:06.294Z,22.37
2017-11-13T20:02:32.708Z,24.37
2017-11-13T20:04:59.123Z,23.10
2017-11-13T20:07:25.525Z,23.87
2017-11-13T20:09:53.430Z,24.90
2017-11-13T20:12:19.834Z,26.03
2017-11-13T20:14:46.964Z,22.00
2017-11-13T20:17:13.345Z,26.23
2017-11-13T20:19:39.724Z,27.87
2017-11-13T20:22:06.124Z,24.63
2017-11-13T20:24:32.560Z,23.90
2017-11-13T20:26:58.964Z,24.80
2017-11-13T20:29:25.330Z,22.57
2017-11-13T20:31:51.735Z,23.70
2017-11-13T20:34:18.129Z,21.03
2017-11-13T20:36:45.261Z,21.20
2017-11-13T20:39:11.674Z,16.13
2017-11-13T20:41:38.072Z,19.23
2017-11-13T20:44:04.453Z,21.67
2017-11-13T20:46:30.845Z,17.70
2017-11-13T20:48:57.316Z,16.00
2017-11-13T20:51:23.724Z,13.70
2017-11-13T20:53:50.112Z,16.37
2017-11-13T20:56:17.221Z,19.13
2017-11-13T20:58:43.643Z,21.93
2017-11-13T21:01:10.065Z,14.63
2017-11-13T21:03:36.440Z,18.10
2017-11-13T21:06:02.853Z,16.70
2017-11-13T21:08:29.325Z,17.77
2017-11-13T21:10:56.511Z,15.60
2017-11-13T21:13:22.904Z,16.67
2017-11-13T21:15:50.029Z,19.30
2017-11-13T21:18:16.435Z,18.30
2017-11-13T21:20:42.835Z,15.47
2017-11-13T21:23:09.967Z,19.87
2017-11-13T21:25:37.185Z,18.47
2017-11-13T21:28:03.675Z,18.17
2017-11-13T21:30:30.079Z,21.60
2017-11-13T21:32:57.245Z,17.97
2017-11-13T21:35:23.690Z,20.53
2017-11-13T21:37:50.096Z,20.50
2017-11-13T21:40:16.489Z,18.40
2017-11-13T21:42:42.900Z,20.20
2017-11-13T21:45:09.304Z,17.67
2017-11-13T21:47:36.507Z,16.90
2017-11-13T21:50:02.936Z,18.40
2017-11-13T21:52:29.422Z,18.60
2017-11-13T21:54:55.906Z,22.27
2017-11-13T21:57:22.323Z,22.67
2017-11-13T21:59:48.788Z,22.90
2017-11-13T22:02:15.215Z,17.53
2017-11-13T22:04:41.707Z,20.30
2017-11-13T22:07:08.142Z,21.50
2017-11-13T22:09:34.573Z,17.80
2017-11-13T22:12:01.018Z,15.87
2017-11-13T22:14:27.452Z,17.30
2017-11-13T22:16:53.905Z,18.50
2017-11-13T22:19:20.339Z,17.63
2017-11-13T22:21:46.755Z,19.37
2017-11-13T22:24:13.244Z,16.73
2017-11-13T22:26:40.387Z,21.10
2017-11-13T22:29:07.530Z,20.60
2017-11-13T22:31:33.925Z,26.33
2017-11-13T22:34:00.341Z,20.27
2017-11-13T22:36:26.737Z,23.27
2017-11-13T22:38:53.912Z,25.37
2017-11-13T22:41:20.349Z,18.43
2017-11-13T22:43:46.798Z,24.73
2017-11-13T22:46:13.185Z,23.00
2017-11-13T22:48:40.362Z,24.27
2017-11-13T22:51:06.761Z,23.83
2017-11-13T22:53:33.163Z,21.47
2017-11-13T22:55:59.560Z,23.77
2017-11-13T22:58:25.984Z,21.50
2017-11-13T23:00:53.097Z,22.27
2017-11-13T23:03:19.496Z,26.53
2017-11-13T23:05:45.908Z,20.30
2017-11-13T23:08:12.311Z,19.80
2017-11-13T23:10:39.432Z,19.90
2017-11-13T23:13:05.828Z,16.70
2017-11-13T23:15:32.221Z,23.20
2017-11-13T23:17:59.364Z,26.13
2017-11-13T23:20:25.957Z,22.07
2017-11-13T23:22:52.369Z,21.27
2017-11-13T23:25:18.744Z,20.00
2017-11-13T23:27:45.155Z,22.03
2017-11-13T23:30:11.573Z,21.60
2017-11-13T23:32:38.016Z,19.27
2017-11-13T23:35:04.414Z,17.70
2017-11-13T23:37:31.549Z,21.77
2017-11-13T23:39:57.910Z,22.33
2017-11-13T23:42:24.355Z,19.70
2017-11-13T23:44:50.773Z,24.37
2017-11-13T23:47:17.930Z,22.20
2017-11-13T23:49:44.343Z,18.67
2017-11-13T23:52:11.530Z,20.27
2017-11-13T23:54:37.939Z,18.23
2017-11-13T23:57:04.360Z,19.83
2017-11-13T23:59:31.521Z,17.77
